CheckWX is a tool to help pilots better visualize weather data.  It is not intended as a substitute for an official pre-flight weather briefing.

06:47:23 UTC

54J METAR
Defuniak Springs Airport
Defuniak Springs, Florida, USA
Current

4 hours ago

K54J 170235Z AUTO 00000KT 10SM CLR 25/22 A3002 RMK AO2 T02500220
Observed
Jun-17 @ 02:35 UTC
Visibility
10 SM
Flight Rules
VFR
Cloud Levels
  • Clear skies
Temperature
25°C / 77°F
Dewpoint
22°C / 72°F
Humidity
83%
Altimeter
30.02" Hg
Pressure
1016.62 hPa
Previous

5 hours ago

K54J 170215Z AUTO 20003KT 10SM CLR 25/22 A3003 RMK AO2 T02520220
Observed
Jun-17 @ 02:15 UTC
Wind
  • 200° at 3 KTS
Visibility
10 SM
Flight Rules
VFR
Cloud Levels
  • Clear skies
Temperature
25°C / 77°F
Dewpoint
22°C / 72°F
Humidity
83%
Altimeter
30.03" Hg
Pressure
1016.92 hPa
Previous

5 hours ago

K54J 170135Z AUTO 21003KT 10SM CLR 26/21 A3002 RMK AO2 T02570214
Observed
Jun-17 @ 01:35 UTC
Wind
  • 210° at 3 KTS
Visibility
10 SM
Flight Rules
VFR
Cloud Levels
  • Clear skies
Temperature
26°C / 79°F
Dewpoint
21°C / 70°F
Humidity
74%
Altimeter
30.02" Hg
Pressure
1016.62 hPa